createdAt,value
2023-04-18T00:00:13.094Z,93387.09
2023-04-18T00:03:18.475Z,93388.56
2023-04-18T00:06:23.107Z,93388.56
2023-04-18T00:09:27.031Z,93379.75
2023-04-18T00:12:30.045Z,93395.06
2023-04-18T00:15:35.048Z,93396.66
2023-04-18T00:18:38.514Z,93391.25
2023-04-18T00:21:45.309Z,93379.94
2023-04-18T00:24:49.040Z,93388.41
2023-04-18T00:27:51.898Z,93379.94
2023-04-18T00:30:55.970Z,93367.66
2023-04-18T00:33:59.402Z,93365.72
2023-04-18T00:37:02.686Z,93353.03
2023-04-18T00:40:06.490Z,93340.31
2023-04-18T00:43:11.114Z,93337.53
2023-04-18T00:46:16.609Z,93327.34
2023-04-18T00:49:21.061Z,93334.75
2023-04-18T00:52:27.636Z,93327.00
2023-04-18T00:55:31.236Z,93323.44
2023-04-18T00:58:35.360Z,93316.22
2023-04-18T01:01:40.631Z,93320.44
2023-04-18T01:04:44.840Z,93305.72
2023-04-18T01:07:48.583Z,93310.38
2023-04-18T01:10:52.984Z,93306.50
2023-04-18T01:14:08.752Z,93301.84
2023-04-18T01:17:12.125Z,93308.06
2023-04-18T01:20:17.272Z,93306.47
2023-04-18T01:23:22.119Z,93303.25
2023-04-18T01:26:25.830Z,93286.88
2023-04-18T01:29:30.054Z,93299.38
2023-04-18T01:32:32.993Z,93295.31
2023-04-18T01:35:36.922Z,93310.91
2023-04-18T01:38:39.902Z,93306.13
2023-04-18T01:41:43.493Z,93317.63
2023-04-18T01:44:47.798Z,93307.34
2023-04-18T01:47:51.263Z,93299.63
2023-04-18T01:50:54.294Z,93305.00
2023-04-18T01:53:57.588Z,93301.88
2023-04-18T01:57:00.845Z,93302.94
2023-04-18T02:00:09.136Z,93278.56
2023-04-18T02:03:18.557Z,93249.97
2023-04-18T02:06:22.505Z,93228.66
2023-04-18T02:09:26.148Z,93226.19
2023-04-18T02:12:30.126Z,93214.56
2023-04-18T02:15:33.847Z,93216.19
2023-04-18T02:18:37.969Z,93203.94
2023-04-18T02:21:42.544Z,93194.66
2023-04-18T02:24:46.062Z,93206.66
2023-04-18T02:27:51.295Z,93191.50
2023-04-18T02:30:54.318Z,93175.22
2023-04-18T02:33:57.845Z,93166.34
2023-04-18T02:37:01.842Z,93160.63
2023-04-18T02:40:06.214Z,93152.03
2023-04-18T02:43:10.386Z,93148.50
2023-04-18T02:46:14.228Z,93144.28
2023-04-18T02:49:19.070Z,93122.78
2023-04-18T02:52:24.202Z,93120.28
2023-04-18T02:55:28.399Z,93119.44
2023-04-18T02:58:36.974Z,93107.78
2023-04-18T03:02:00.203Z,93107.78
2023-04-18T03:05:04.616Z,93095.09
2023-04-18T03:08:09.654Z,93094.34
2023-04-18T03:11:14.333Z,93083.00
2023-04-18T03:14:17.173Z,93081.16
2023-04-18T03:17:26.050Z,93088.59
2023-04-18T03:20:29.934Z,93077.97
2023-04-18T03:23:33.642Z,93080.94
2023-04-18T03:26:40.034Z,93081.97
2023-04-18T03:29:43.916Z,93080.25
2023-04-18T03:32:49.892Z,93078.81
2023-04-18T03:35:53.038Z,93074.91
2023-04-18T03:38:57.295Z,93072.72
2023-04-18T03:42:02.650Z,93061.53
2023-04-18T03:45:06.643Z,93064.97
2023-04-18T03:48:11.624Z,93058.03
2023-04-18T03:51:19.313Z,93063.66
2023-04-18T03:54:23.006Z,93051.75
2023-04-18T03:57:26.970Z,93051.03
2023-04-18T04:00:31.021Z,93055.69
2023-04-18T04:03:44.399Z,93044.81
2023-04-18T04:06:47.806Z,93032.44
2023-04-18T04:09:52.675Z,93025.59
2023-04-18T04:12:55.959Z,93032.88
2023-04-18T04:15:59.970Z,93025.00
2023-04-18T04:19:03.401Z,93015.00
2023-04-18T04:22:13.348Z,93004.75
2023-04-18T04:25:18.827Z,92991.13
2023-04-18T04:28:24.122Z,93000.75
2023-04-18T04:31:33.464Z,92999.31
2023-04-18T04:34:37.313Z,93001.53
2023-04-18T04:37:44.585Z,92995.66
2023-04-18T04:40:59.102Z,92999.34
2023-04-18T04:44:02.797Z,92998.59
2023-04-18T04:47:08.624Z,93011.00
2023-04-18T04:50:16.195Z,93011.53
2023-04-18T04:53:20.372Z,93005.88
2023-04-18T04:56:24.827Z,93008.84
2023-04-18T04:59:31.038Z,93013.22
2023-04-18T05:02:36.218Z,93021.81
2023-04-18T05:05:39.899Z,93027.03
2023-04-18T05:08:43.549Z,93037.63
2023-04-18T05:11:50.175Z,93042.25
2023-04-18T05:14:52.963Z,93048.66
2023-04-18T05:17:56.498Z,93051.50
2023-04-18T05:21:00.186Z,93030.03
2023-04-18T05:24:04.222Z,93037.38
2023-04-18T05:27:08.240Z,93025.91
2023-04-18T05:30:12.677Z,93024.28
2023-04-18T05:33:15.939Z,93019.72
2023-04-18T05:36:19.666Z,93029.19
2023-04-18T05:39:22.643Z,93019.44
2023-04-18T05:42:26.381Z,93016.16
2023-04-18T05:45:29.330Z,93009.69
2023-04-18T05:48:33.588Z,93006.69
2023-04-18T05:51:36.920Z,93009.50
2023-04-18T05:54:40.883Z,93007.25
2023-04-18T05:57:44.561Z,93013.69
2023-04-18T06:00:49.233Z,93015.34
2023-04-18T06:03:53.110Z,93014.13
2023-04-18T06:06:57.289Z,93014.47
2023-04-18T06:10:00.990Z,93011.38
2023-04-18T06:13:04.918Z,93009.34
2023-04-18T06:16:09.156Z,93012.13
2023-04-18T06:19:13.150Z,93013.03
2023-04-18T06:22:16.458Z,93010.72
2023-04-18T06:25:20.589Z,93000.72
2023-04-18T06:28:24.431Z,93000.88
2023-04-18T06:31:28.775Z,92994.13
2023-04-18T06:34:32.599Z,92993.13
2023-04-18T06:37:36.289Z,92986.72
2023-04-18T06:40:39.944Z,92980.84
2023-04-18T06:43:52.395Z,92971.81
2023-04-18T06:47:06.531Z,92978.41
2023-04-18T06:50:10.506Z,92980.63
2023-04-18T06:53:14.342Z,92986.41
2023-04-18T06:56:18.509Z,92973.09
2023-04-18T06:59:22.325Z,92978.84
2023-04-18T07:02:26.457Z,92985.56
2023-04-18T07:05:30.486Z,92986.63
2023-04-18T07:08:35.531Z,92986.84
2023-04-18T07:11:41.063Z,92971.41
2023-04-18T07:14:45.379Z,92979.53
2023-04-18T07:17:49.207Z,92979.13
2023-04-18T07:20:53.283Z,92976.69
2023-04-18T07:23:57.018Z,92973.69
2023-04-18T07:27:00.902Z,92972.81
2023-04-18T07:30:04.850Z,92959.91
2023-04-18T07:33:08.487Z,92956.81
2023-04-18T07:36:12.030Z,92953.22
2023-04-18T07:39:16.105Z,92961.50
2023-04-18T07:42:19.717Z,92940.75
2023-04-18T07:45:23.789Z,92941.63
2023-04-18T07:48:27.612Z,92941.19
2023-04-18T07:51:35.942Z,92947.00
2023-04-18T07:54:39.614Z,92947.16
2023-04-18T07:57:51.177Z,92940.91
2023-04-18T08:00:55.125Z,92950.06
2023-04-18T08:04:02.247Z,92947.06
2023-04-18T08:07:05.299Z,92941.06
2023-04-18T08:10:09.024Z,92932.75
2023-04-18T08:13:15.531Z,92933.38
2023-04-18T08:16:19.226Z,92933.69
2023-04-18T08:19:22.241Z,92930.28
2023-04-18T08:22:25.205Z,92922.19
2023-04-18T08:25:28.126Z,92920.25
2023-04-18T08:44:18.632Z,92918.47
2023-04-18T08:47:22.220Z,92921.44
2023-04-18T08:50:26.445Z,92917.16
2023-04-18T08:53:30.065Z,92911.47
2023-04-18T08:56:35.903Z,92916.44
2023-04-18T08:59:40.758Z,92914.38
2023-04-18T09:02:45.353Z,92910.66
2023-04-18T09:06:10.886Z,92916.97
2023-04-18T09:09:15.227Z,92905.16
2023-04-18T09:12:23.173Z,92907.78
2023-04-18T09:15:30.120Z,92903.63
2023-04-18T09:18:33.887Z,92902.72
2023-04-18T09:21:41.716Z,92902.34
2023-04-18T09:24:58.002Z,92899.19
2023-04-18T09:28:05.989Z,92916.00
2023-04-18T09:31:16.093Z,92928.44
2023-04-18T09:34:25.811Z,92920.53
2023-04-18T09:37:30.300Z,92915.63
2023-04-18T09:40:34.485Z,92905.78
2023-04-18T09:43:38.427Z,92912.41
2023-04-18T09:46:42.239Z,92909.03
2023-04-18T09:49:46.307Z,92907.09
2023-04-18T09:52:50.142Z,92904.97
2023-04-18T09:55:57.499Z,92903.81
2023-04-18T09:59:11.155Z,92902.69
2023-04-18T10:02:25.873Z,92903.00
2023-04-18T10:05:33.135Z,92912.13
2023-04-18T10:08:37.077Z,92923.72
2023-04-18T10:11:41.850Z,92924.13
2023-04-18T10:14:45.444Z,92918.50
2023-04-18T10:18:05.064Z,92937.47
2023-04-18T10:21:09.917Z,92939.88
2023-04-18T10:24:57.023Z,92945.09
2023-04-18T10:28:02.708Z,92955.66
2023-04-18T10:31:08.721Z,92950.66
2023-04-18T10:34:18.159Z,92969.34
2023-04-18T10:37:22.078Z,92967.03
2023-04-18T10:40:35.274Z,92967.66
2023-04-18T10:44:16.277Z,92966.63
2023-04-18T10:47:21.961Z,92976.28
2023-04-18T10:53:59.626Z,92997.63
2023-04-18T10:57:05.069Z,93005.28
2023-04-18T11:00:12.288Z,93009.72
2023-04-18T11:03:16.057Z,93015.81
2023-04-18T11:06:19.248Z,93013.28
2023-04-18T11:09:23.211Z,93004.81
2023-04-18T11:12:32.523Z,93010.66
2023-04-18T11:15:37.894Z,93012.41
2023-04-18T11:18:42.570Z,93025.59
2023-04-18T11:21:46.381Z,93023.28
2023-04-18T11:24:50.054Z,93027.81
2023-04-18T11:27:55.607Z,93031.50
2023-04-18T11:31:03.828Z,93017.06
2023-04-18T11:34:06.783Z,93004.41
2023-04-18T11:37:09.833Z,93014.28
2023-04-18T11:40:14.577Z,93013.72
2023-04-18T11:43:26.089Z,93010.91
2023-04-18T11:46:39.414Z,93005.88
2023-04-18T11:49:43.113Z,92994.69
2023-04-18T11:52:50.992Z,92975.03
2023-04-18T11:55:57.686Z,92974.38
2023-04-18T11:59:09.673Z,92951.78
2023-04-18T12:02:16.803Z,92952.97
2023-04-18T12:05:29.936Z,92944.59
2023-04-18T12:08:34.260Z,92950.53
2023-04-18T12:11:37.125Z,92947.38
2023-04-18T12:14:40.398Z,92942.03
2023-04-18T12:17:54.976Z,92937.56
2023-04-18T12:21:02.484Z,92924.72
2023-04-18T12:24:16.889Z,92926.94
2023-04-18T12:27:19.901Z,92917.59
2023-04-18T12:30:28.669Z,92914.41
2023-04-18T12:33:32.332Z,92898.75
2023-04-18T12:36:36.066Z,92894.41
2023-04-18T12:39:39.737Z,92913.03
2023-04-18T12:42:44.013Z,92928.00
2023-04-18T12:45:47.965Z,92914.84
2023-04-18T12:48:50.933Z,92956.44
2023-04-18T12:51:53.919Z,92985.38
2023-04-18T12:54:57.422Z,93005.47
2023-04-18T12:58:01.235Z,92999.00
2023-04-18T13:01:05.979Z,92997.81
2023-04-18T13:04:12.914Z,93001.53
2023-04-18T13:07:16.831Z,93006.91
2023-04-18T13:10:21.919Z,93010.59
2023-04-18T13:13:26.052Z,93013.25
2023-04-18T13:16:29.403Z,93009.19
2023-04-18T13:19:33.705Z,93001.03
2023-04-18T13:22:38.347Z,92977.91
2023-04-18T13:25:42.955Z,92971.44
2023-04-18T13:28:47.093Z,92956.03
2023-04-18T13:31:50.340Z,92945.19
2023-04-18T13:34:54.068Z,92938.28
2023-04-18T13:37:58.111Z,92930.88
2023-04-18T13:41:11.314Z,92934.50
2023-04-18T13:44:17.089Z,92940.69
2023-04-18T13:47:20.386Z,92932.72
2023-04-18T13:50:24.192Z,92936.88
2023-04-18T13:53:30.259Z,92936.59
2023-04-18T13:56:35.095Z,92917.84
2023-04-18T13:59:42.958Z,92933.41
2023-04-18T14:02:47.102Z,92931.41
2023-04-18T14:05:50.947Z,92933.22
2023-04-18T14:08:55.379Z,92932.50
2023-04-18T14:11:59.053Z,92920.81
2023-04-18T14:15:03.011Z,92910.06
2023-04-18T14:18:07.055Z,92918.63
2023-04-18T14:21:09.980Z,92916.50
2023-04-18T14:24:13.071Z,92898.31
2023-04-18T14:27:17.056Z,92894.25
2023-04-18T14:30:20.300Z,92901.84
2023-04-18T14:33:24.990Z,92894.97
2023-04-18T14:36:28.549Z,92896.50
2023-04-18T14:39:32.596Z,92892.16
2023-04-18T14:42:36.400Z,92890.47
2023-04-18T14:45:40.317Z,92886.56
2023-04-18T14:48:46.959Z,92883.03
2023-04-18T14:51:49.819Z,92881.25
2023-04-18T14:54:53.445Z,92877.53
2023-04-18T14:57:56.872Z,92874.53
2023-04-18T15:01:00.968Z,92876.66
2023-04-18T15:04:05.023Z,92870.75
2023-04-18T15:07:09.489Z,92873.25
2023-04-18T15:10:13.565Z,92871.19
2023-04-18T15:13:17.278Z,92864.34
2023-04-18T15:16:20.980Z,92866.19
2023-04-18T15:19:24.426Z,92867.97
2023-04-18T15:22:27.907Z,92868.97
2023-04-18T15:25:31.632Z,92868.59
2023-04-18T15:28:34.883Z,92854.84
2023-04-18T15:31:39.154Z,92838.22
2023-04-18T15:34:42.603Z,92842.09
2023-04-18T15:37:46.330Z,92846.91
2023-04-18T15:40:50.521Z,92846.06
2023-04-18T15:43:54.130Z,92847.69
2023-04-18T15:46:58.654Z,92849.00
2023-04-18T15:50:03.892Z,92838.88
2023-04-18T15:53:07.820Z,92840.06
2023-04-18T15:56:11.495Z,92833.31
2023-04-18T15:59:15.677Z,92819.22
2023-04-18T16:02:19.381Z,92806.56
2023-04-18T16:05:22.776Z,92806.84
2023-04-18T16:08:26.416Z,92788.63
2023-04-18T16:11:30.477Z,92782.03
2023-04-18T16:14:34.270Z,92788.44
2023-04-18T16:17:38.957Z,92797.13
2023-04-18T16:20:42.213Z,92790.22
2023-04-18T16:23:45.404Z,92787.34
2023-04-18T16:26:49.192Z,92778.97
2023-04-18T16:29:54.700Z,92769.88
2023-04-18T16:32:57.992Z,92768.66
2023-04-18T16:36:05.147Z,92757.38
2023-04-18T16:39:08.233Z,92738.28
2023-04-18T16:42:13.337Z,92745.91
2023-04-18T16:45:17.858Z,92746.16
2023-04-18T16:48:20.994Z,92752.31
2023-04-18T16:51:25.052Z,92764.66
2023-04-18T16:54:28.055Z,92755.47
2023-04-18T16:57:31.156Z,92747.00
2023-04-18T17:00:36.427Z,92750.63
2023-04-18T17:03:42.972Z,92730.59
2023-04-18T17:06:47.250Z,92731.31
2023-04-18T17:09:50.985Z,92734.81
2023-04-18T17:12:55.085Z,92738.81
2023-04-18T17:15:59.281Z,92731.56
2023-04-18T17:19:02.970Z,92730.50
2023-04-18T17:22:06.344Z,92741.59
2023-04-18T17:25:09.768Z,92762.53
2023-04-18T17:28:14.814Z,92765.75
2023-04-18T17:31:18.449Z,92765.06
2023-04-18T17:34:22.324Z,92757.91
2023-04-18T17:37:26.490Z,92759.53
2023-04-18T17:40:29.642Z,92749.75
2023-04-18T17:43:33.352Z,92738.06
2023-04-18T17:46:36.540Z,92737.78
2023-04-18T17:49:40.578Z,92719.00
2023-04-18T17:52:44.521Z,92694.25
2023-04-18T17:55:50.947Z,92683.00
2023-04-18T17:58:56.526Z,92669.03
2023-04-18T18:02:00.743Z,92663.81
2023-04-18T18:05:03.594Z,92666.09
2023-04-18T18:08:07.375Z,92666.97
2023-04-18T18:11:11.657Z,92679.72
2023-04-18T18:14:14.917Z,92681.88
2023-04-18T18:17:18.958Z,92691.50
2023-04-18T18:20:23.058Z,92689.56
2023-04-18T18:23:26.018Z,92682.41
2023-04-18T18:26:29.039Z,92682.19
2023-04-18T18:29:32.781Z,92674.19
2023-04-18T18:32:35.756Z,92679.16
2023-04-18T18:35:38.746Z,92671.59
2023-04-18T18:38:42.374Z,92662.78
2023-04-18T18:41:46.422Z,92644.72
2023-04-18T18:44:49.987Z,92643.22
2023-04-18T18:47:53.927Z,92647.81
2023-04-18T18:50:58.835Z,92640.13
2023-04-18T18:54:02.762Z,92638.50
2023-04-18T18:57:06.128Z,92642.47
2023-04-18T19:00:14.270Z,92640.53
2023-04-18T19:03:19.823Z,92638.56
2023-04-18T19:06:23.832Z,92628.72
2023-04-18T19:09:27.925Z,92647.28
2023-04-18T19:12:32.484Z,92644.84
2023-04-18T19:15:36.142Z,92649.72
2023-04-18T19:18:42.376Z,92652.69
2023-04-18T19:21:46.714Z,92651.69
2023-04-18T19:24:50.793Z,92650.63
2023-04-18T19:27:54.413Z,92648.19
2023-04-18T19:30:58.308Z,92640.47
2023-04-18T19:34:01.795Z,92626.75
2023-04-18T19:37:06.128Z,92628.41
2023-04-18T19:40:10.746Z,92636.28
2023-04-18T19:43:14.532Z,92638.31
2023-04-18T19:46:18.311Z,92615.09
2023-04-18T19:49:23.377Z,92605.38
2023-04-18T19:52:27.299Z,92588.59
2023-04-18T19:55:32.637Z,92577.47
2023-04-18T19:58:46.689Z,92606.72
2023-04-18T20:01:50.386Z,92615.91
2023-04-18T20:04:53.543Z,92601.78
2023-04-18T20:07:57.606Z,92595.59
2023-04-18T20:11:01.155Z,92589.16
2023-04-18T20:14:05.361Z,92571.50
2023-04-18T20:17:09.171Z,92578.78
2023-04-18T20:20:13.973Z,92591.75
2023-04-18T20:23:18.003Z,92585.44
2023-04-18T20:26:21.698Z,92572.66
2023-04-18T20:29:26.337Z,92561.66
2023-04-18T20:32:29.680Z,92541.97
2023-04-18T20:35:33.301Z,92538.72
2023-04-18T20:38:37.887Z,92553.97
2023-04-18T20:41:47.107Z,92596.38
2023-04-18T20:44:50.882Z,92597.28
2023-04-18T20:47:54.549Z,92602.38
2023-04-18T20:50:58.606Z,92579.91
2023-04-18T20:54:02.684Z,92546.47
2023-04-18T20:57:06.326Z,92531.34
2023-04-18T21:00:11.077Z,92521.06
2023-04-18T21:03:15.726Z,92531.88
2023-04-18T21:06:22.761Z,92536.84
2023-04-18T21:09:26.894Z,92517.78
2023-04-18T21:12:30.822Z,92469.75
2023-04-18T21:15:36.656Z,92461.66
2023-04-18T21:18:40.218Z,92477.19
2023-04-18T21:21:44.196Z,92448.16
2023-04-18T21:24:47.859Z,92452.13
2023-04-18T21:27:52.014Z,92453.03
2023-04-18T21:30:55.939Z,92462.94
2023-04-18T21:34:04.743Z,92459.00
2023-04-18T21:37:07.787Z,92454.59
2023-04-18T21:40:12.157Z,92480.72
2023-04-18T21:43:15.103Z,92500.44
2023-04-18T21:46:18.718Z,92520.56
2023-04-18T21:49:22.492Z,92532.34
2023-04-18T21:52:26.190Z,92533.16
2023-04-18T21:55:29.787Z,92524.19
2023-04-18T21:58:34.186Z,92534.28
2023-04-18T22:01:38.813Z,92530.69
2023-04-18T22:04:43.663Z,92511.63
2023-04-18T22:07:57.393Z,92475.81
2023-04-18T22:11:02.554Z,92459.09
2023-04-18T22:14:06.435Z,92476.63
2023-04-18T22:17:10.054Z,92487.44
2023-04-18T22:20:14.013Z,92476.81
2023-04-18T22:23:17.753Z,92463.13
2023-04-18T22:26:21.584Z,92456.84
2023-04-18T22:29:24.986Z,92472.63
2023-04-18T22:32:28.537Z,92450.25
2023-04-18T22:35:32.642Z,92423.16
2023-04-18T22:38:36.293Z,92427.16
2023-04-18T22:41:40.204Z,92458.97
2023-04-18T22:44:43.776Z,92471.06
2023-04-18T22:47:47.674Z,92459.91
2023-04-18T22:50:50.965Z,92452.13
2023-04-18T22:53:54.918Z,92460.72
2023-04-18T22:56:59.178Z,92455.19
2023-04-18T23:00:05.123Z,92461.34
2023-04-18T23:03:08.869Z,92470.91
2023-04-18T23:06:13.540Z,92475.22
2023-04-18T23:09:20.092Z,92474.59
2023-04-18T23:12:24.000Z,92471.78
2023-04-18T23:15:27.821Z,92497.41
2023-04-18T23:18:31.832Z,92498.16
2023-04-18T23:21:35.462Z,92502.47
2023-04-18T23:24:39.858Z,92513.94
2023-04-18T23:27:43.417Z,92516.69
2023-04-18T23:30:48.889Z,92500.50
2023-04-18T23:33:52.485Z,92510.50
2023-04-18T23:36:56.519Z,92518.22
2023-04-18T23:40:00.777Z,92520.69
2023-04-18T23:43:05.052Z,92514.97
2023-04-18T23:46:07.942Z,92520.84
2023-04-18T23:49:11.964Z,92519.25
2023-04-18T23:52:15.592Z,92538.19
2023-04-18T23:55:19.611Z,92539.03
2023-04-18T23:58:23.376Z,92522.06
